Time;durP1;ratioP1;P1;durP2;ratioP2;P2;SDS_P1;SDS_P2;PMS_P1;PMS_P2;Temp;Humidity;BMP_temperature;BMP_pressure;BME280_temperature;BME280_humidity;BME280_pressure;Samples;Min_cycle;Max_cycle;Signal;HPM_P1;HPM_P2
2023/11/28 00:00:15;;;;;;;5.88;4.20;;;;;;;2.04;64.49;98885.59;4929544;28;20019;-95
2023/11/28 00:02:46;;;;;;;5.70;3.30;;;;;;;2.09;65.59;98883.03;4929429;28;20500;-94
2023/11/28 00:05:21;;;;;;;4.15;1.98;;;;;;;2.06;63.34;98880.06;4929939;28;20041;-95
2023/11/28 00:07:47;;;;;;;4.78;2.85;;;;;;;2.17;61.81;98885.38;4944486;28;20066;-94
2023/11/28 00:10:12;;;;;;;8.60;5.78;;;;;;;2.18;64.64;98900.31;4929173;28;20034;-96
2023/11/28 00:12:38;;;;;;;10.57;6.32;;;;;;;2.20;65.73;98894.75;4928157;28;20082;-95
2023/11/28 00:15:04;;;;;;;3.28;2.10;;;;;;;2.12;62.76;98890.56;4928761;28;20038;-95
2023/11/28 00:17:30;;;;;;;7.68;4.72;;;;;;;2.22;64.46;98885.53;4944142;28;20046;-94
2023/11/28 00:19:56;;;;;;;8.60;5.68;;;;;;;2.18;65.39;98884.38;4928869;28;20115;-95
2023/11/28 00:22:24;;;;;;;8.95;5.35;;;;;;;2.02;65.17;98872.53;4928512;28;20538;-94
2023/11/28 00:24:50;;;;;;;9.80;5.07;;;;;;;1.96;64.63;98870.75;4944054;28;20039;-94
2023/11/28 00:27:15;;;;;;;9.88;6.03;;;;;;;1.87;65.92;98872.13;4928390;28;20065;-94
2023/11/28 00:29:49;;;;;;;8.95;5.60;;;;;;;1.87;65.90;98873.94;4928190;28;20117;-95
2023/11/28 00:32:23;;;;;;;6.22;4.50;;;;;;;1.94;66.37;98880.81;4929924;28;20027;-94
2023/11/28 00:34:51;;;;;;;5.32;3.85;;;;;;;1.82;66.17;98856.03;4944259;28;20039;-94
2023/11/28 00:37:16;;;;;;;5.80;4.03;;;;;;;1.86;65.63;98872.34;4943815;28;20039;-95
2023/11/28 00:39:42;;;;;;;5.82;4.00;;;;;;;1.95;65.12;98882.44;4927714;28;20030;-94
2023/11/28 00:42:12;;;;;;;5.63;3.58;;;;;;;1.77;64.99;98863.88;4927369;28;20026;-94
2023/11/28 00:44:41;;;;;;;5.50;3.28;;;;;;;1.72;65.02;98856.59;4929666;28;20381;-95
2023/11/28 00:47:12;;;;;;;4.20;2.45;;;;;;;1.66;63.35;98857.50;4928243;28;20042;-94
2023/11/28 00:49:46;;;;;;;6.10;2.38;;;;;;;1.63;64.36;98827.94;4928260;28;20031;-94
2023/11/28 00:52:12;;;;;;;3.40;2.30;;;;;;;1.81;64.20;98867.72;4928516;28;20114;-94
2023/11/28 00:54:42;;;;;;;4.32;2.22;;;;;;;1.70;63.98;98845.41;4927591;28;20077;-94
2023/11/28 00:57:11;;;;;;;3.10;2.08;;;;;;;1.76;64.95;98827.75;4928570;28;20065;-95
2023/11/28 00:59:41;;;;;;;3.78;2.10;;;;;;;1.75;65.59;98842.88;4944544;28;20042;-94
2023/11/28 01:02:08;;;;;;;4.88;2.33;;;;;;;1.69;64.27;98821.72;4944602;28;20118;-94
2023/11/28 01:04:34;;;;;;;2.20;1.50;;;;;;;1.84;63.06;98835.41;4928447;28;20031;-94
2023/11/28 01:07:03;;;;;;;2.17;1.40;;;;;;;1.86;61.28;98817.41;4928686;28;20030;-94
2023/11/28 01:09:31;;;;;;;2.40;1.27;;;;;;;1.90;61.34;98805.28;4929298;28;20030;-94
2023/11/28 01:11:59;;;;;;;1.50;1.10;;;;;;;1.96;62.61;98815.00;4943304;28;20109;-95
2023/11/28 01:14:24;;;;;;;2.15;1.27;;;;;;;2.11;63.89;98845.66;4943154;28;20038;-93
2023/11/28 01:17:00;;;;;;;1.67;1.17;;;;;;;1.97;63.35;98810.50;4927256;28;20031;-94
2023/11/28 01:19:28;;;;;;;3.63;1.50;;;;;;;2.03;64.32;98814.91;4930672;28;20038;-94
2023/11/28 01:21:56;;;;;;;1.55;1.10;;;;;;;2.09;62.21;98816.66;4928592;28;20093;-93
2023/11/28 01:24:22;;;;;;;1.30;1.00;;;;;;;2.13;61.96;98803.75;4927822;28;20037;-94
2023/11/28 01:26:50;;;;;;;2.35;1.60;;;;;;;2.26;62.06;98810.69;4927593;28;20035;-94
2023/11/28 01:29:16;;;;;;;1.58;1.20;;;;;;;2.14;60.81;98787.59;4943134;28;20027;-94
2023/11/28 01:31:45;;;;;;;2.38;1.30;;;;;;;2.11;61.16;98773.94;4927705;28;20077;-93
2023/11/28 01:34:13;;;;;;;3.15;1.20;;;;;;;2.34;60.50;98799.75;4928675;28;20034;-94
2023/11/28 01:36:40;;;;;;;2.15;1.10;;;;;;;2.17;61.76;98765.88;4929479;28;20113;-94
2023/11/28 01:39:08;;;;;;;3.35;1.40;;;;;;;2.26;61.33;98774.31;4942856;28;20034;-94
2023/11/28 01:41:37;;;;;;;2.92;1.55;;;;;;;2.17;62.11;98771.19;4945479;28;20033;-94
2023/11/28 01:44:06;;;;;;;4.20;2.90;;;;;;;1.99;63.50;98755.34;4944185;28;20081;-93
2023/11/28 01:46:36;;;;;;;5.40;3.53;;;;;;;1.96;64.48;98764.56;4927259;28;20042;-94
2023/11/28 01:49:02;;;;;;;7.55;3.40;;;;;;;2.02;65.79;98784.91;4927145;28;20034;-94
2023/11/28 01:51:31;;;;;;;5.00;2.90;;;;;;;1.78;65.12;98746.84;4927661;28;20068;-94
2023/11/28 01:54:02;;;;;;;4.18;2.67;;;;;;;1.90;64.96;98759.38;4929975;28;20438;-93
2023/11/28 01:56:30;;;;;;;3.67;2.58;;;;;;;1.80;65.56;98754.59;4931718;28;20042;-93
2023/11/28 01:59:01;;;;;;;6.47;3.40;;;;;;;1.68;66.44;98732.53;4931392;28;20092;-93
2023/11/28 02:01:26;;;;;;;5.60;3.00;;;;;;;1.73;66.12;98730.81;4931349;28;20065;-93
2023/11/28 02:03:54;;;;;;;4.55;2.03;;;;;;;1.69;65.85;98720.88;4947829;28;20465;-94
2023/11/28 02:06:22;;;;;;;3.53;2.10;;;;;;;1.69;66.64;98720.88;4931045;28;20030;-94
2023/11/28 02:08:50;;;;;;;2.42;1.45;;;;;;;1.79;64.90;98729.91;4931788;28;20031;-95
2023/11/28 02:11:16;;;;;;;1.50;1.00;;;;;;;1.74;64.42;98705.91;4930175;28;20030;-96
2023/11/28 02:13:42;;;;;;;1.15;0.90;;;;;;;1.94;63.12;98721.50;4931380;28;20448;-96
2023/11/28 02:16:11;;;;;;;1.17;0.88;;;;;;;2.11;62.15;98728.81;4930964;28;20026;-93
2023/11/28 02:18:40;;;;;;;1.10;1.00;;;;;;;2.23;61.40;98724.31;4947321;28;20054;-94
2023/11/28 02:21:17;;;;;;;1.65;0.70;;;;;;;2.14;61.23;98705.28;4946891;28;20066;-93
2023/11/28 02:23:42;;;;;;;1.35;0.90;;;;;;;2.19;62.03;98692.09;4946024;28;20026;-95
2023/11/28 02:26:24;;;;;;;5.32;3.28;;;;;;;2.28;63.84;98716.47;4932020;28;20043;-95
2023/11/28 02:28:57;;;;;;;6.88;4.18;;;;;;;1.92;65.77;98691.72;4947446;28;20035;-96
2023/11/28 02:31:26;;;;;;;7.38;4.63;;;;;;;1.96;64.39;98690.22;4931840;28;20117;-95
2023/11/28 02:33:58;;;;;;;7.88;4.05;;;;;;;1.93;64.23;98676.59;4932017;28;20060;-96
2023/11/28 02:36:23;;;;;;;6.07;3.55;;;;;;;1.99;64.04;98679.16;4946953;28;20027;-94
2023/11/28 02:38:54;;;;;;;2.15;1.65;;;;;;;2.14;63.93;98702.63;4930028;28;20129;-95
2023/11/28 02:41:22;;;;;;;2.00;1.30;;;;;;;2.02;64.33;98672.59;4932232;28;20038;-96
2023/11/28 02:43:51;;;;;;;2.00;1.10;;;;;;;2.13;63.85;98681.59;4929868;28;20047;-95
2023/11/28 02:46:28;;;;;;;2.25;1.40;;;;;;;2.12;63.48;98677.34;4932965;28;20031;-95
2023/11/28 02:49:00;;;;;;;5.13;3.45;;;;;;;1.89;65.28;98655.03;4932585;28;20077;-95
2023/11/28 02:51:28;;;;;;;6.25;3.45;;;;;;;2.06;64.72;98688.88;4947136;28;20042;-96
2023/11/28 02:53:57;;;;;;;3.78;2.33;;;;;;;1.91;64.92;98654.78;4931852;28;20042;-95
2023/11/28 02:56:23;;;;;;;2.70;2.15;;;;;;;2.04;64.30;98665.19;4932095;28;20031;-95
2023/11/28 02:58:50;;;;;;;2.55;1.25;;;;;;;1.96;64.09;98642.44;4929271;28;20037;-95
2023/11/28 03:01:19;;;;;;;5.38;3.17;;;;;;;1.94;65.31;98633.09;4930686;28;20377;-95
2023/11/28 03:03:44;;;;;;;3.58;1.83;;;;;;;1.91;64.94;98622.94;4929524;28;20034;-96
2023/11/28 03:06:12;;;;;;;2.08;1.48;;;;;;;2.10;64.35;98651.00;4930224;28;20035;-95
2023/11/28 03:08:41;;;;;;;5.88;3.22;;;;;;;1.99;65.37;98634.03;4930101;28;20031;-95
2023/11/28 03:11:08;;;;;;;7.75;2.70;;;;;;;2.02;65.85;98638.88;4929118;28;20042;-91
2023/11/28 03:13:34;;;;;;;4.47;3.28;;;;;;;1.92;66.03;98620.06;4928966;28;20031;-93
2023/11/28 03:16:02;;;;;;;3.70;2.50;;;;;;;1.96;65.90;98620.41;4928810;28;20031;-92
2023/11/28 03:18:29;;;;;;;2.22;1.50;;;;;;;1.89;65.74;98606.44;4928590;28;20047;-92
2023/11/28 03:20:56;;;;;;;2.83;1.50;;;;;;;2.00;65.61;98635.63;4928597;28;20035;-93
2023/11/28 03:23:22;;;;;;;4.60;3.20;;;;;;;1.87;66.48;98619.94;4944127;28;20453;-93
2023/11/28 03:25:47;;;;;;;4.95;2.35;;;;;;;1.90;67.49;98608.06;4930821;28;20089;-92
2023/11/28 03:28:13;;;;;;;2.80;1.40;;;;;;;1.91;65.95;98607.00;4938096;28;20035;-92
2023/11/28 03:30:39;;;;;;;6.53;2.70;;;;;;;1.89;66.77;98593.16;4930872;28;20036;-92
2023/11/28 03:33:04;;;;;;;2.35;1.60;;;;;;;1.95;67.33;98586.94;4946474;28;20041;-92
2023/11/28 03:35:30;;;;;;;3.17;1.33;;;;;;;2.06;64.10;98572.84;4943630;28;20106;-92
2023/11/28 03:37:57;;;;;;;1.90;1.05;;;;;;;2.15;62.61;98566.13;4947894;28;20365;-92
2023/11/28 03:40:22;;;;;;;2.08;1.25;;;;;;;2.39;61.77;98579.38;4946928;28;20038;-93
2023/11/28 03:42:48;;;;;;;1.70;1.10;;;;;;;2.48;62.82;98572.66;4947248;28;20026;-95
2023/11/28 03:45:14;;;;;;;1.25;0.90;;;;;;;2.66;60.45;98587.63;4946739;28;20034;-93
2023/11/28 03:47:40;;;;;;;3.08;1.10;;;;;;;2.70;61.34;98572.81;4947052;28;20541;-90
2023/11/28 03:50:06;;;;;;;1.73;1.25;;;;;;;2.65;62.44;98562.06;4946854;28;20030;-92
2023/11/28 03:52:32;;;;;;;1.75;1.10;;;;;;;2.71;61.77;98565.63;4948236;28;20035;-91
2023/11/28 03:54:57;;;;;;;1.58;1.10;;;;;;;2.78;60.24;98550.34;4946547;28;20030;-91
2023/11/28 03:57:23;;;;;;;7.60;3.85;;;;;;;2.75;63.80;98562.25;4946270;28;20034;-92
2023/11/28 03:59:49;;;;;;;8.30;4.18;;;;;;;2.72;64.20;98556.59;4947057;28;20034;-91
2023/11/28 04:02:15;;;;;;;5.18;3.13;;;;;;;2.70;64.33;98572.81;4946534;28;20026;-91
2023/11/28 04:04:41;;;;;;;3.53;1.63;;;;;;;2.66;61.15;98557.56;4947527;28;20417;-91
2023/11/28 04:07:06;;;;;;;2.00;1.30;;;;;;;2.74;59.65;98557.19;4947139;28;20062;-92
2023/11/28 04:09:32;;;;;;;1.63;0.98;;;;;;;2.80;60.62;98550.91;4947052;28;20054;-90
2023/11/28 04:11:58;;;;;;;3.47;1.20;;;;;;;2.83;60.18;98539.81;4947241;28;20030;-92
2023/11/28 04:14:27;;;;;;;2.75;1.25;;;;;;;2.87;60.47;98532.97;4955914;28;20066;-92
2023/11/28 04:16:53;;;;;;;2.42;1.40;;;;;;;3.04;60.49;98562.25;4946788;28;20038;-91
2023/11/28 04:19:19;;;;;;;3.97;2.28;;;;;;;2.97;60.79;98549.13;4950267;28;20035;-91
2023/11/28 04:21:44;;;;;;;5.97;4.68;;;;;;;2.97;63.14;98572.25;4960781;28;20028;-91
2023/11/28 04:24:10;;;;;;;7.45;4.45;;;;;;;2.65;64.45;98558.63;4946221;28;20121;-92
2023/11/28 04:26:39;;;;;;;8.75;4.72;;;;;;;2.61;64.30;98556.44;4946548;28;20026;-93
2023/11/28 04:29:05;;;;;;;8.07;3.92;;;;;;;2.57;63.47;98549.16;4955660;28;20030;-92
2023/11/28 04:31:31;;;;;;;6.57;3.38;;;;;;;2.65;63.33;98546.13;4951187;28;20033;-92
2023/11/28 04:33:56;;;;;;;4.05;2.53;;;;;;;2.65;63.38;98540.81;4946573;28;20115;-93
2023/11/28 04:36:24;;;;;;;4.72;1.80;;;;;;;2.72;61.76;98538.00;4946284;28;20451;-90
2023/11/28 04:38:50;;;;;;;2.85;1.40;;;;;;;2.75;59.79;98527.72;4946243;28;20117;-91
2023/11/28 04:41:15;;;;;;;1.73;1.20;;;;;;;2.88;59.11;98533.78;4946635;28;20057;-93
2023/11/28 04:43:41;;;;;;;1.77;1.17;;;;;;;3.01;59.00;98542.28;4962209;28;20030;-91
2023/11/28 04:46:07;;;;;;;1.95;1.20;;;;;;;3.01;59.16;98522.88;4946050;28;20068;-92
2023/11/28 04:48:33;;;;;;;3.80;1.20;;;;;;;3.16;57.85;98524.97;4945737;28;20035;-91
2023/11/28 04:50:59;;;;;;;2.67;1.30;;;;;;;3.24;57.41;98519.25;4945845;28;20038;-90
2023/11/28 04:53:25;;;;;;;4.07;2.17;;;;;;;3.27;57.46;98510.78;4961911;28;20105;-91
2023/11/28 04:55:53;;;;;;;3.80;2.00;;;;;;;3.36;57.50;98517.31;4945857;28;20030;-92
2023/11/28 04:58:22;;;;;;;3.30;2.10;;;;;;;3.36;57.55;98525.28;4945798;28;20044;-93
2023/11/28 05:01:24;;;;;;;3.40;1.80;;;;;;;3.32;57.11;98507.38;4939429;28;20390;-93
2023/11/28 05:03:50;;;;;;;4.68;2.22;;;;;;;3.34;56.87;98510.59;4975555;28;20026;-90
2023/11/28 05:06:16;;;;;;;1.95;1.25;;;;;;;3.55;56.25;98519.69;4964246;28;20497;-92
2023/11/28 05:08:44;;;;;;;1.92;1.60;;;;;;;3.54;56.43;98500.25;4926283;28;20109;-91
2023/11/28 05:11:10;;;;;;;2.40;1.40;;;;;;;3.76;57.62;98524.28;4951182;28;20589;-92
2023/11/28 05:13:41;;;;;;;1.90;1.33;;;;;;;3.59;57.12;98502.19;4945665;28;20096;-92
2023/11/28 05:16:09;;;;;;;2.63;1.60;;;;;;;3.65;57.23;98490.56;4942357;28;20055;-92
2023/11/28 05:18:44;;;;;;;1.95;1.30;;;;;;;3.62;54.44;98493.72;4953105;28;20092;-91
2023/11/28 05:21:46;;;;;;;4.00;1.48;;;;;;;3.71;55.88;98484.25;4946938;28;20050;-94
2023/11/28 05:24:18;;;;;;;3.33;2.20;;;;;;;3.78;54.18;98489.44;4950758;28;20035;-96
2023/11/28 05:27:02;;;;;;;7.32;3.80;;;;;;;3.85;56.52;98493.50;5207248;23;20057;-94
2023/11/28 05:32:19;;;;;;;;;;;;;;;;;;;;;
2023/11/28 05:34:51;;;;;;;2.38;1.90;;;;;;;3.98;57.28;98472.91;5003770;28;20489;-92
2023/11/28 05:37:35;;;;;;;2.33;1.52;;;;;;;3.96;55.61;98465.16;5015842;28;20059;-95
2023/11/28 05:40:33;;;;;;;3.55;2.55;;;;;;;4.14;55.27;98490.69;5036866;28;20034;-95
2023/11/28 05:43:05;;;;;;;2.80;1.60;;;;;;;4.12;53.93;98458.16;5022113;28;20041;-96
2023/11/28 05:45:33;;;;;;;;;;;;;;;4.27;54.60;98470.03;5013342;28;20037;-92
2023/11/28 05:48:05;;;;;;;3.00;2.28;;;;;;;4.20;54.29;98449.72;5004957;28;19909;-94
2023/11/28 05:50:31;;;;;;;5.57;2.67;;;;;;;4.19;54.25;98444.63;5005293;28;20030;-92
2023/11/28 05:57:02;;;;;;;;;;;;;;;;;;;;;
2023/11/28 05:59:39;;;;;;;3.20;2.20;;;;;;;4.47;53.46;98434.81;4967231;28;20091;-92
2023/11/28 06:02:07;;;;;;;4.30;2.28;;;;;;;4.65;53.56;98435.25;4933937;28;20023;-93
2023/11/28 06:04:34;;;;;;;3.50;1.95;;;;;;;4.72;54.40;98428.91;4967711;28;20097;-91
2023/11/28 06:07:00;;;;;;;2.05;1.65;;;;;;;4.86;53.50;98459.44;4953468;28;20034;-91
2023/11/28 06:10:13;;;;;;;3.17;1.85;;;;;;;4.95;52.89;98454.44;4966941;28;20044;-95
2023/11/28 06:12:53;;;;;;;6.55;2.10;;;;;;;4.88;53.35;98427.16;5008687;28;20030;-95
2023/11/28 06:18:30;;;;;;;2.13;1.67;;;;;;;4.98;51.11;98412.06;4973544;28;20070;-96
2023/11/28 06:20:58;;;;;;;2.42;1.50;;;;;;;5.01;51.08;98403.53;4987919;28;20030;-93
2023/11/28 06:23:24;;;;;;;2.03;1.50;;;;;;;5.21;50.56;98421.56;4977478;28;20044;-96
2023/11/28 06:25:50;;;;;;;2.28;1.63;;;;;;;4.96;51.08;98392.84;4992965;28;20033;-91
2023/11/28 06:28:26;;;;;;;8.27;4.78;;;;;;;5.02;52.83;98397.16;4998106;28;20040;-94
2023/11/28 06:30:52;;;;;;;14.70;8.77;;;;;;;5.25;51.39;98409.31;5069247;23;20054;-95
2023/11/28 06:33:31;;;;;;;;;;;;;;;;;;;;;
2023/11/28 06:36:04;;;;;;;4.43;2.95;;;;;;;5.34;51.13;98387.47;4972776;28;20091;-95
2023/11/28 06:38:32;;;;;;;6.13;3.83;;;;;;;5.29;52.11;98372.22;4933726;28;20404;-92
2023/11/28 06:41:34;;;;;;;;;;;;;;;;;;;;;
2023/11/28 06:44:25;;;;;;;;;;;;;;;;;;;;;
2023/11/28 06:46:54;;;;;;;7.97;6.35;;;;;;;5.19;51.39;98369.53;4985392;28;20091;-93
2023/11/28 06:49:31;;;;;;;2.90;2.33;;;;;;;5.23;50.61;98344.72;4967870;28;20026;-93
2023/11/28 06:55:22;;;;;;;;;;;;;;;;;;;;;
2023/11/28 06:58:15;;;;;;;3.40;2.20;;;;;;;5.48;51.09;98367.28;4925433;29;20119;-95
2023/11/28 07:00:44;;;;;;;3.80;2.67;;;;;;;5.54;49.74;98341.38;4920101;29;20483;-94
2023/11/28 07:03:38;;;;;;;6.38;3.10;;;;;;;5.72;49.17;98361.47;4954116;28;20043;-92
2023/11/28 07:20:47;;;;;;;;;;;;;;;;;;;;;
2023/11/28 07:26:58;;;;;;;2.30;1.63;;;;;;;6.32;47.23;98295.91;4883904;29;20061;-92
2023/11/28 07:44:57;;;;;;;4.47;1.65;;;;;;;6.50;47.53;98309.81;4831512;29;20052;-93
2023/11/28 07:48:04;;;;;;;4.15;2.33;;;;;;;6.57;47.11;98292.41;4824842;29;20115;-92
2023/11/28 07:50:48;;;;;;;3.65;2.70;;;;;;;6.56;48.39;98296.16;4806542;29;20043;-92
2023/11/28 07:56:29;;;;;;;3.42;1.92;;;;;;;6.42;47.93;98271.03;4921198;28;20036;-92
2023/11/28 07:58:55;;;;;;;4.28;2.40;;;;;;;6.53;48.38;98275.31;4965917;28;20479;-95
2023/11/28 08:01:21;;;;;;;5.15;3.50;;;;;;;6.56;47.79;98274.78;4963349;28;20034;-92
2023/11/28 08:04:19;;;;;;;3.67;2.50;;;;;;;6.78;48.11;98287.03;4968717;28;20038;-95
2023/11/28 08:06:47;;;;;;;4.50;1.80;;;;;;;6.72;48.38;98267.50;4979508;28;20101;-93
2023/11/28 08:09:34;;;;;;;;;;;;;;;;;;;;;
2023/11/28 08:12:08;;;;;;;4.10;1.80;;;;;;;6.79;48.53;98241.31;4984448;28;20037;-94
2023/11/28 08:18:37;;;;;;;5.32;1.58;;;;;;;7.10;46.64;98225.16;4919520;29;20043;-94
2023/11/28 08:21:26;;;;;;;10.88;8.32;;;;;;;7.05;48.41;98220.59;4909277;28;20045;-91
2023/11/28 08:23:51;;;;;;;8.63;5.25;;;;;;;7.22;47.63;98206.06;4966108;28;20109;-94
2023/11/28 08:26:26;;;;;;;4.50;2.92;;;;;;;7.30;47.63;98210.84;4963622;28;20062;-92
2023/11/28 08:29:03;;;;;;;5.07;2.25;;;;;;;7.32;47.26;98183.81;4981061;28;20026;-95
2023/11/28 08:31:36;;;;;;;2.83;1.90;;;;;;;7.51;47.31;98189.31;4994557;28;20472;-91
2023/11/28 08:34:04;;;;;;;2.95;1.75;;;;;;;7.75;46.17;98206.31;4994710;28;20400;-91
2023/11/28 08:36:39;;;;;;;6.18;4.60;;;;;;;7.87;45.70;98203.28;4952352;28;20066;-96
2023/11/28 08:39:25;;;;;;;3.08;1.63;;;;;;;7.67;45.80;98180.09;4983131;28;20039;-93
2023/11/28 08:41:57;;;;;;;5.97;4.03;;;;;;;7.88;44.83;98165.47;4986294;28;20123;-92
2023/11/28 08:44:51;;;;;;;3.75;1.75;;;;;;;8.06;46.72;98181.97;4979155;28;20046;-93
2023/11/28 08:47:16;;;;;;;2.42;1.35;;;;;;;8.17;45.62;98150.50;4977162;28;20038;-94
2023/11/28 08:50:03;;;;;;;2.47;1.90;;;;;;;8.24;45.02;98150.97;4973504;28;20033;-93
2023/11/28 08:52:29;;;;;;;1.90;1.55;;;;;;;8.01;46.19;98152.50;4986358;28;20030;-93
2023/11/28 08:55:00;;;;;;;3.00;1.38;;;;;;;8.09;46.97;98166.13;4970189;28;20029;-96
2023/11/28 08:57:33;;;;;;;3.50;1.10;;;;;;;8.14;47.40;98161.81;4970058;28;20462;-94
2023/11/28 09:00:35;;;;;;;3.47;1.65;;;;;;;8.16;46.95;98130.16;4969378;28;20033;-95
2023/11/28 09:03:05;;;;;;;2.13;1.70;;;;;;;8.26;47.10;98125.47;4995281;28;20076;-88
2023/11/28 09:05:53;;;;;;;4.85;1.60;;;;;;;8.33;47.71;98116.28;4989908;28;20038;-92
2023/11/28 09:08:19;;;;;;;1.90;1.30;;;;;;;8.19;47.49;98103.53;4984013;28;20057;-92
2023/11/28 09:10:45;;;;;;;2.05;1.00;;;;;;;8.38;47.99;98100.13;4967175;28;20132;-90
2023/11/28 09:13:35;;;;;;;2.17;1.40;;;;;;;8.48;49.07;98092.78;4967005;28;20050;-91
2023/11/28 09:16:10;;;;;;;16.30;8.70;;;;;;;8.40;48.47;98063.09;4996249;28;20030;-90
2023/11/28 09:18:39;;;;;;;3.88;2.15;;;;;;;8.53;48.49;98073.19;4982906;28;20476;-94
2023/11/28 09:21:09;;;;;;;4.80;3.03;;;;;;;8.38;48.58;98044.59;4976342;28;20026;-91
2023/11/28 09:23:35;;;;;;;7.82;4.35;;;;;;;8.49;49.84;98062.22;4986128;28;20049;-94
2023/11/28 09:26:18;;;;;;;4.80;2.60;;;;;;;8.68;49.38;98069.50;4977167;28;20041;-94
2023/11/28 09:28:44;;;;;;;2.70;1.58;;;;;;;8.48;48.91;98052.56;4990317;28;20037;-94
2023/11/28 09:31:28;;;;;;;5.47;2.97;;;;;;;8.73;49.24;98057.91;4986283;28;20030;-93
2023/11/28 09:34:02;;;;;;;4.90;3.17;;;;;;;8.87;50.45;98074.88;4979568;28;20080;-93
2023/11/28 09:36:34;;;;;;;4.47;2.90;;;;;;;8.86;49.55;98036.50;5001064;28;20407;-92
2023/11/28 09:39:03;;;;;;;5.72;1.60;;;;;;;9.06;48.95;98046.16;4982176;28;20165;-95
2023/11/28 09:41:29;;;;;;;1.60;1.30;;;;;;;8.75;48.60;98036.94;4997674;28;20068;-89
2023/11/28 09:43:55;;;;;;;2.35;1.40;;;;;;;8.60;49.79;98028.00;4967794;28;20499;-93
2023/11/28 09:46:24;;;;;;;5.90;1.50;;;;;;;8.53;49.64;98024.06;4981192;28;20038;-91
2023/11/28 09:48:59;;;;;;;2.25;1.35;;;;;;;8.28;50.50;98013.34;4966292;28;20026;-91
2023/11/28 09:51:27;;;;;;;2.28;1.45;;;;;;;8.03;51.45;98019.00;4965363;28;20065;-94
2023/11/28 09:54:00;;;;;;;7.10;4.57;;;;;;;7.95;51.82;98001.69;4972409;28;20032;-93
2023/11/28 09:56:28;;;;;;;4.78;3.55;;;;;;;8.12;52.23;97997.75;4974150;28;20022;-93
2023/11/28 09:58:59;;;;;;;4.28;2.90;;;;;;;8.20;52.45;97984.50;4971339;28;20467;-93
2023/11/28 10:01:28;;;;;;;3.40;1.80;;;;;;;8.38;51.80;97992.84;4986623;28;20025;-94
2023/11/28 10:04:33;;;;;;;;;;;;;;;;;;;;;
2023/11/28 10:07:03;;;;;;;3.20;1.67;;;;;;;8.29;52.91;97963.19;4994466;28;20124;-90
2023/11/28 10:09:33;;;;;;;2.00;1.40;;;;;;;8.29;52.27;97945.22;4987874;28;20145;-91
2023/11/28 10:12:09;;;;;;;9.68;4.70;;;;;;;8.43;53.28;97957.97;4976616;28;20030;-94
2023/11/28 10:14:46;;;;;;;4.85;3.03;;;;;;;8.51;52.28;97949.28;4995783;28;20038;-93
2023/11/28 10:18:01;;;;;;;;;;;;;;;;;;;;;
2023/11/28 10:20:28;;;;;;;5.35;3.25;;;;;;;8.38;52.82;97909.72;5012435;28;20041;-95
2023/11/28 10:23:03;;;;;;;10.80;6.55;;;;;;;8.32;52.95;97900.94;5013329;28;20041;-93
2023/11/28 10:25:59;;;;;;;;;;;;;;;;;;;;;
2023/11/28 10:28:50;;;;;;;2.92;1.42;;;;;;;8.42;51.81;97916.91;4990916;28;20125;-93
2023/11/28 10:31:43;;;;;;;3.05;1.40;;;;;;;8.26;51.96;97926.25;4985247;28;20033;-92
2023/11/28 10:34:36;;;;;;;3.25;1.40;;;;;;;8.21;52.02;97924.41;4993774;28;20412;-91
2023/11/28 10:40:34;;;;;;;3.22;2.13;;;;;;;8.17;52.51;97893.13;4967815;28;20565;-91
2023/11/28 10:43:00;;;;;;;2.63;1.70;;;;;;;7.81;53.40;97898.94;4961285;28;20532;-93
2023/11/28 10:45:31;;;;;;;6.20;3.08;;;;;;;7.66;54.43;97898.03;4931147;28;20029;-93
2023/11/28 10:47:57;;;;;;;4.15;2.25;;;;;;;7.78;53.94;97899.50;4961473;28;20113;-94
2023/11/28 10:50:23;;;;;;;2.30;1.70;;;;;;;7.66;55.54;97902.59;4931528;28;20118;-93
2023/11/28 10:52:48;;;;;;;2.53;1.75;;;;;;;7.74;55.88;97919.91;4961210;28;20122;-91
2023/11/28 10:56:01;;;;;;;5.65;2.40;;;;;;;7.62;56.44;97893.53;4954821;28;20517;-93
2023/11/28 10:58:41;;;;;;;4.63;2.83;;;;;;;7.49;57.71;97881.59;4877782;29;20127;-95
2023/11/28 11:01:41;;;;;;;3.90;1.85;;;;;;;7.68;57.63;97895.88;4936135;29;20425;-93
2023/11/28 11:04:13;;;;;;;7.63;5.20;;;;;;;7.59;58.77;97868.09;4963029;28;20028;-93
2023/11/28 11:06:41;;;;;;;4.50;2.55;;;;;;;7.70;56.91;97868.78;4931114;29;20057;-93
2023/11/28 11:12:24;;;;;;;2.70;2.03;;;;;;;7.81;57.90;97886.34;4983430;28;20511;-92
2023/11/28 11:14:58;;;;;;;1.13;1.00;;;;;;;7.86;57.84;97888.13;4973896;28;20029;-92
2023/11/28 11:18:14;;;;;;;4.95;2.08;;;;;;;7.75;59.26;97871.41;5004750;28;20034;-94
2023/11/28 11:24:27;;;;;;;3.60;2.05;;;;;;;7.73;57.96;97836.06;5053514;27;2256412;-92
2023/11/28 11:27:02;;;;;;;8.40;3.58;;;;;;;7.69;59.26;97832.34;5068449;28;20067;-95
2023/11/28 11:29:49;;;;;;;4.70;2.17;;;;;;;7.68;58.86;97838.81;5066653;28;20036;-94
2023/11/28 11:35:10;;;;;;;4.45;1.70;;;;;;;7.85;58.96;97815.00;5082838;28;20058;-92
2023/11/28 11:37:47;;;;;;;;;;;;;;;;;;;;;
2023/11/28 11:40:18;;;;;;;5.57;3.17;;;;;;;7.97;58.72;97776.25;5081567;28;20123;-92
2023/11/28 11:42:47;;;;;;;6.15;3.22;;;;;;;7.83;59.67;97778.88;5094208;28;20028;-90
2023/11/28 11:45:18;;;;;;;6.70;3.97;;;;;;;8.05;59.67;97779.09;5060187;28;20043;-90
2023/11/28 11:47:44;;;;;;;4.37;2.90;;;;;;;8.05;59.31;97771.03;5071850;28;20039;-90
2023/11/28 11:50:19;;;;;;;4.63;2.90;;;;;;;8.09;59.24;97747.94;5077905;28;20365;-94
2023/11/28 11:53:30;;;;;;;;;;;;;;;;;;;;;
2023/11/28 11:56:23;;;;;;;5.28;2.97;;;;;;;8.18;59.36;97721.25;5042067;28;20334;-95
2023/11/28 11:58:54;;;;;;;6.53;4.97;;;;;;;8.10;59.35;97708.50;5017469;28;20068;-94
2023/11/28 12:01:30;;;;;;;9.80;6.83;;;;;;;8.20;60.29;97708.34;5016880;28;20033;-94
2023/11/28 12:03:59;;;;;;;6.50;5.05;;;;;;;8.27;60.02;97714.09;5015307;28;20280;-93
2023/11/28 12:06:25;;;;;;;14.77;8.45;;;;;;;8.13;60.90;97715.16;5030704;28;20574;-92
2023/11/28 12:09:06;;;;;;;10.73;5.10;;;;;;;8.03;60.89;97687.44;5018648;28;20136;-93
2023/11/28 12:11:35;;;;;;;18.87;12.90;;;;;;;8.21;61.55;97706.44;5038789;28;20104;-95
2023/11/28 12:14:03;;;;;;;7.85;4.07;;;;;;;8.30;61.45;97700.13;5033267;28;20275;-92
2023/11/28 12:16:29;;;;;;;7.03;4.53;;;;;;;8.34;61.32;97696.84;5025109;28;20041;-94
2023/11/28 12:18:55;;;;;;;9.48;4.95;;;;;;;8.18;61.93;97690.97;5009328;28;20482;-94
2023/11/28 12:21:39;;;;;;;5.85;4.25;;;;;;;8.22;62.04;97695.44;5035666;28;20044;-94
2023/11/28 12:24:07;;;;;;;5.72;3.13;;;;;;;8.37;61.49;97683.66;5021501;28;20468;-93
2023/11/28 12:26:37;;;;;;;6.28;3.33;;;;;;;8.48;61.87;97703.06;5020248;28;20041;-94
2023/11/28 12:29:07;;;;;;;8.15;4.43;;;;;;;8.31;61.95;97674.09;5026614;28;20227;-94
2023/11/28 12:31:34;;;;;;;6.28;4.57;;;;;;;8.21;62.86;97676.97;5023513;28;20498;-92
2023/11/28 12:34:07;;;;;;;6.63;3.70;;;;;;;8.27;63.60;97663.16;5018475;28;20143;-94
2023/11/28 12:36:36;;;;;;;4.53;3.33;;;;;;;8.30;63.72;97654.53;5013625;28;20063;-95
2023/11/28 12:39:12;;;;;;;4.40;3.20;;;;;;;8.30;63.81;97640.34;5050633;28;20037;-95
2023/11/28 12:41:40;;;;;;;7.30;4.63;;;;;;;8.47;64.03;97666.63;5052257;28;20133;-94
2023/11/28 12:44:19;;;;;;;6.55;4.60;;;;;;;8.23;64.38;97640.72;5051945;28;20035;-95
2023/11/28 12:46:57;;;;;;;257.60;129.45;;;;;;;8.10;65.02;97636.91;5054304;28;20020;-95
2023/11/28 12:49:26;;;;;;;7.78;4.80;;;;;;;8.11;65.85;97643.06;5054114;28;20036;-94
2023/11/28 12:51:59;;;;;;;8.68;6.05;;;;;;;8.06;65.99;97625.19;5067463;28;20123;-93
2023/11/28 13:01:14;;;;;;;;;;;;;;;;;;;;;
2023/11/28 13:04:07;;;;;;;18.33;12.23;;;;;;;8.51;65.75;97608.59;5009268;28;20048;-94
2023/11/28 13:06:50;;;;;;;8.80;6.15;;;;;;;8.64;65.67;97596.28;5056560;28;20048;-93
2023/11/28 13:09:58;;;;;;;10.10;7.30;;;;;;;8.73;65.52;97609.78;5050313;28;20036;-93
2023/11/28 13:12:26;;;;;;;7.68;5.75;;;;;;;8.60;66.18;97587.22;5045979;28;20036;-96
2023/11/28 13:14:59;;;;;;;10.63;5.72;;;;;;;8.62;66.74;97577.78;5033113;28;20047;-93
2023/11/28 13:17:41;;;;;;;;;;;;;;;;;;;;;
2023/11/28 13:20:20;;;;;;;10.52;7.03;;;;;;;8.64;66.63;97562.19;5054722;28;20111;-93
2023/11/28 13:23:20;;;;;;;17.95;10.90;;;;;;;8.72;66.23;97533.84;5052550;28;20066;-95
2023/11/28 13:26:02;;;;;;;18.13;10.52;;;;;;;8.74;65.74;97510.19;5071132;28;20155;-95
2023/11/28 13:28:58;;;;;;;16.05;9.55;;;;;;;8.88;65.99;97528.94;5072514;28;20398;-95
2023/11/28 13:31:35;;;;;;;12.23;7.90;;;;;;;8.90;66.30;97526.75;5065587;28;20032;-96
2023/11/28 13:40:26;;;;;;;8.88;6.55;;;;;;;9.12;66.19;97496.44;5014056;28;20034;-95
2023/11/28 13:42:52;;;;;;;10.93;6.32;;;;;;;9.00;65.79;97486.25;5043566;28;20016;-92
2023/11/28 13:45:31;;;;;;;;;;;;;;;;;;;;;
2023/11/28 13:50:49;;;;;;;44.65;26.48;;;;;;;8.81;66.06;97443.47;5072898;28;20047;-96